createdAt,value
2017-09-11T00:00:45.343Z,14.67
2017-09-11T00:03:13.863Z,14.90
2017-09-11T00:05:42.475Z,16.27
2017-09-11T00:08:11.259Z,18.37
2017-09-11T00:10:39.821Z,18.47
2017-09-11T00:13:08.542Z,14.60
2017-09-11T00:15:37.032Z,13.53
2017-09-11T00:18:05.567Z,21.30
2017-09-11T00:20:34.148Z,17.13
2017-09-11T00:23:02.663Z,15.70
2017-09-11T00:25:31.331Z,17.73
2017-09-11T00:27:59.905Z,17.00
2017-09-11T00:30:28.438Z,18.13
2017-09-11T00:32:57.135Z,14.47
2017-09-11T00:35:25.698Z,13.20
2017-09-11T00:37:54.203Z,14.93
2017-09-11T00:40:22.728Z,15.23
2017-09-11T00:42:51.308Z,17.30
2017-09-11T00:45:19.802Z,17.90
2017-09-11T00:47:48.377Z,18.03
2017-09-11T00:50:16.304Z,16.80
2017-09-11T00:52:44.914Z,17.00
2017-09-11T00:55:12.735Z,17.47
2017-09-11T00:57:41.269Z,15.53
2017-09-11T01:00:09.781Z,14.87
2017-09-11T01:02:38.319Z,16.63
2017-09-11T01:05:06.879Z,17.30
2017-09-11T01:07:35.379Z,19.07
2017-09-11T01:10:03.575Z,16.43
2017-09-11T01:12:32.098Z,18.30
2017-09-11T01:15:00.671Z,19.60
2017-09-11T01:17:29.249Z,17.10
2017-09-11T01:19:57.144Z,16.10
2017-09-11T01:22:25.745Z,14.47
2017-09-11T01:24:53.973Z,17.53
2017-09-11T01:27:22.249Z,18.50
2017-09-11T01:29:50.116Z,14.60
2017-09-11T01:32:18.579Z,18.63
2017-09-11T01:34:47.082Z,14.87
2017-09-11T01:37:15.611Z,14.23
2017-09-11T01:39:43.962Z,16.83
2017-09-11T01:42:12.502Z,15.40
2017-09-11T01:44:41.110Z,17.93
2017-09-11T01:47:09.791Z,20.13
2017-09-11T01:49:38.276Z,20.30
2017-09-11T01:52:06.806Z,15.70
2017-09-11T01:54:35.371Z,17.30
2017-09-11T01:57:03.906Z,18.00
2017-09-11T01:59:32.479Z,21.03
2017-09-11T02:02:01.033Z,15.57
2017-09-11T02:04:29.530Z,19.87
2017-09-11T02:06:58.369Z,13.77
2017-09-11T02:09:26.959Z,18.13
2017-09-11T02:11:55.505Z,18.97
2017-09-11T02:14:24.080Z,15.70
2017-09-11T02:16:52.406Z,16.30
2017-09-11T02:19:20.915Z,19.80
2017-09-11T02:21:49.407Z,17.53
2017-09-11T02:24:17.951Z,19.30
2017-09-11T02:26:46.472Z,15.70
2017-09-11T02:29:15.266Z,12.23
2017-09-11T02:31:43.791Z,16.50
2017-09-11T02:34:12.013Z,14.37
2017-09-11T02:36:40.551Z,15.60
2017-09-11T02:39:09.054Z,13.97
2017-09-11T02:41:37.568Z,19.70
2017-09-11T02:44:06.078Z,17.20
2017-09-11T02:46:34.576Z,15.00
2017-09-11T02:49:03.062Z,16.33
2017-09-11T02:51:31.594Z,18.43
2017-09-11T02:54:00.130Z,16.20
2017-09-11T02:56:28.737Z,14.47
2017-09-11T02:58:57.266Z,13.97
2017-09-11T03:01:25.793Z,15.30
2017-09-11T03:03:54.318Z,14.50
2017-09-11T03:06:22.847Z,17.20
2017-09-11T03:08:51.405Z,16.67
2017-09-11T03:11:19.974Z,15.67
2017-09-11T03:13:49.306Z,15.53
2017-09-11T03:16:17.830Z,14.87
2017-09-11T03:18:46.352Z,16.10
2017-09-11T03:21:15.706Z,16.20
2017-09-11T03:23:44.276Z,15.20
2017-09-11T03:26:12.768Z,15.13
2017-09-11T03:28:41.353Z,16.30
2017-09-11T03:31:09.875Z,19.17
2017-09-11T03:33:38.404Z,21.73
2017-09-11T03:36:06.947Z,18.70
2017-09-11T03:38:35.443Z,19.17
2017-09-11T03:41:03.998Z,19.93
2017-09-11T03:43:32.488Z,14.90
2017-09-11T03:46:00.991Z,20.97
2017-09-11T03:48:29.603Z,23.00
2017-09-11T03:50:58.115Z,15.77
2017-09-11T03:53:26.690Z,16.50
2017-09-11T03:55:55.186Z,14.67
2017-09-11T03:58:23.678Z,16.33
2017-09-11T04:00:54.464Z,23.50
2017-09-11T04:03:23.104Z,14.67
2017-09-11T04:05:51.611Z,16.83
2017-09-11T04:08:20.155Z,16.13
2017-09-11T04:10:48.670Z,13.70
2017-09-11T04:13:17.444Z,13.87
2017-09-11T04:15:46.006Z,16.93
2017-09-11T04:18:14.305Z,16.00
2017-09-11T04:20:42.843Z,22.87
2017-09-11T04:23:11.343Z,19.00
2017-09-11T04:25:39.866Z,15.53
2017-09-11T04:28:08.403Z,17.27
2017-09-11T04:30:37.104Z,20.73
2017-09-11T04:33:05.659Z,17.23
2017-09-11T04:35:34.214Z,14.80
2017-09-11T04:38:02.773Z,16.60
2017-09-11T04:40:31.158Z,18.83
2017-09-11T04:43:00.285Z,15.27
2017-09-11T04:45:28.806Z,17.93
2017-09-11T04:47:57.296Z,17.93
2017-09-11T04:50:25.851Z,15.17
2017-09-11T04:52:54.378Z,16.37
2017-09-11T04:55:22.963Z,20.00
2017-09-11T04:57:51.539Z,15.50
2017-09-11T05:00:20.017Z,16.83
2017-09-11T05:02:48.484Z,17.87
2017-09-11T05:05:16.962Z,16.70
2017-09-11T05:07:45.942Z,19.77
2017-09-11T05:10:14.263Z,18.00
2017-09-11T05:12:42.736Z,26.27
2017-09-11T05:15:11.206Z,22.73
2017-09-11T05:17:39.708Z,26.43
2017-09-11T05:20:08.258Z,26.23
2017-09-11T05:22:36.727Z,20.13
2017-09-11T05:25:05.250Z,17.80
2017-09-11T05:27:33.719Z,14.10
2017-09-11T05:30:02.046Z,15.90
2017-09-11T05:32:30.534Z,13.03
2017-09-11T05:34:58.981Z,14.73
2017-09-11T05:37:27.468Z,16.93
2017-09-11T05:39:55.916Z,15.73
2017-09-11T05:42:24.423Z,16.33
2017-09-11T05:44:53.171Z,17.20
2017-09-11T05:47:21.634Z,19.70
2017-09-11T05:49:50.074Z,17.03
2017-09-11T05:52:18.743Z,14.13
2017-09-11T05:54:47.202Z,16.50
2017-09-11T05:57:15.664Z,18.07
2017-09-11T05:59:44.221Z,15.30
2017-09-11T06:02:12.863Z,20.73
2017-09-11T06:04:41.322Z,22.00
2017-09-11T06:07:10.556Z,19.00
2017-09-11T06:09:39.004Z,18.63
2017-09-11T06:12:08.214Z,20.90
2017-09-11T06:14:36.692Z,12.97
2017-09-11T06:17:04.967Z,14.10
2017-09-11T06:19:33.401Z,14.67
2017-09-11T06:22:01.848Z,13.37
2017-09-11T06:24:30.291Z,13.47
2017-09-11T06:26:58.772Z,15.97
2017-09-11T06:29:27.204Z,18.50
2017-09-11T06:31:55.515Z,16.97
2017-09-11T06:34:24.191Z,13.50
2017-09-11T06:36:52.680Z,14.30
2017-09-11T06:39:21.023Z,17.20
2017-09-11T06:41:50.423Z,18.27
2017-09-11T06:44:18.927Z,18.17
2017-09-11T06:46:47.633Z,16.70
2017-09-11T06:49:16.274Z,19.93
2017-09-11T06:51:44.810Z,28.90
2017-09-11T06:54:13.300Z,19.60
2017-09-11T06:56:41.768Z,17.50
2017-09-11T06:59:10.228Z,16.60
2017-09-11T07:01:38.682Z,17.40
2017-09-11T07:04:07.174Z,20.50
2017-09-11T07:06:35.625Z,18.00
2017-09-11T07:09:03.418Z,20.93
2017-09-11T07:11:31.283Z,16.00
2017-09-11T07:13:59.740Z,17.37
2017-09-11T07:16:28.241Z,16.77
2017-09-11T07:18:56.693Z,16.83
2017-09-11T07:21:25.159Z,17.37
2017-09-11T07:23:53.617Z,18.00
2017-09-11T07:26:22.066Z,24.87
2017-09-11T07:28:50.547Z,20.33
2017-09-11T07:31:18.972Z,24.63
2017-09-11T07:33:47.473Z,24.70
2017-09-11T07:36:15.945Z,25.60
2017-09-11T07:38:44.418Z,21.60
2017-09-11T07:41:12.906Z,19.03
2017-09-11T07:43:41.245Z,19.50
2017-09-11T07:46:09.750Z,21.30
2017-09-11T07:48:38.197Z,21.03
2017-09-11T07:51:06.678Z,21.53
2017-09-11T07:53:35.137Z,23.70
2017-09-11T07:56:04.370Z,20.40
2017-09-11T07:58:32.997Z,28.73
2017-09-11T08:01:01.485Z,23.17
2017-09-11T08:03:29.959Z,20.77
2017-09-11T08:05:58.506Z,20.67
2017-09-11T08:08:27.092Z,22.83
2017-09-11T08:10:55.585Z,20.73
2017-09-11T08:13:24.029Z,21.50
2017-09-11T08:15:53.863Z,23.53
2017-09-11T08:18:22.318Z,23.83
2017-09-11T08:20:50.790Z,22.00
2017-09-11T08:23:19.224Z,21.23
2017-09-11T08:25:47.677Z,20.40
2017-09-11T08:28:16.177Z,19.60
2017-09-11T08:30:44.601Z,21.07
2017-09-11T08:33:13.019Z,20.07
2017-09-11T08:35:41.492Z,22.60
2017-09-11T08:38:09.938Z,23.70
2017-09-11T08:40:38.378Z,21.43
2017-09-11T08:43:06.796Z,22.53
2017-09-11T08:45:35.224Z,22.70
2017-09-11T08:48:03.677Z,21.57
2017-09-11T08:50:32.004Z,23.43
2017-09-11T08:53:00.424Z,20.17
2017-09-11T08:55:28.911Z,18.63
2017-09-11T08:57:57.369Z,19.77
2017-09-11T09:00:25.850Z,22.17
2017-09-11T09:02:54.350Z,21.17
2017-09-11T09:05:22.782Z,20.13
2017-09-11T09:07:51.254Z,23.00
2017-09-11T09:10:19.745Z,20.37
2017-09-11T09:12:48.202Z,21.63
2017-09-11T09:15:17.433Z,22.27
2017-09-11T09:17:45.885Z,23.77
2017-09-11T09:20:14.390Z,21.33
2017-09-11T09:22:42.843Z,21.47
2017-09-11T09:25:11.390Z,22.53
2017-09-11T09:27:39.930Z,19.33
2017-09-11T09:30:08.431Z,22.20
2017-09-11T09:32:36.936Z,26.83
2017-09-11T09:35:05.436Z,21.03
2017-09-11T09:37:33.922Z,23.00
2017-09-11T09:40:02.382Z,23.00
2017-09-11T09:42:30.718Z,28.27
2017-09-11T09:44:59.811Z,21.70
2017-09-11T09:47:28.307Z,30.47
2017-09-11T09:49:56.830Z,23.47
2017-09-11T09:52:25.310Z,24.73
2017-09-11T09:54:53.826Z,22.30
2017-09-11T09:57:22.286Z,25.20
2017-09-11T09:59:50.785Z,23.17
2017-09-11T10:02:19.332Z,22.20
2017-09-11T10:04:47.873Z,23.30
2017-09-11T10:07:16.399Z,21.57
2017-09-11T10:09:45.004Z,19.50
2017-09-11T10:12:13.571Z,18.83
2017-09-11T10:14:42.162Z,18.17
2017-09-11T10:17:10.731Z,19.07
2017-09-11T10:19:39.271Z,18.20
2017-09-11T10:22:07.749Z,20.00
2017-09-11T10:24:36.289Z,21.47
2017-09-11T10:27:04.783Z,20.57
2017-09-11T10:29:33.288Z,20.93
2017-09-11T10:32:01.835Z,21.47
2017-09-11T10:34:30.301Z,16.30
2017-09-11T10:36:58.787Z,21.20
2017-09-11T10:39:27.323Z,18.97
2017-09-11T10:41:55.852Z,15.83
2017-09-11T10:44:24.372Z,18.63
2017-09-11T10:46:52.878Z,16.30
2017-09-11T10:49:21.574Z,21.00
2017-09-11T10:51:50.932Z,18.40
2017-09-11T10:54:19.441Z,20.77
2017-09-11T10:56:48.135Z,20.37
2017-09-11T10:59:17.553Z,20.47
2017-09-11T11:01:46.067Z,18.60
2017-09-11T11:04:14.669Z,17.57
2017-09-11T11:06:43.153Z,16.30
2017-09-11T11:09:11.639Z,19.00
2017-09-11T11:11:40.171Z,15.97
2017-09-11T11:14:08.679Z,16.07
2017-09-11T11:16:37.281Z,16.50
2017-09-11T11:19:05.761Z,18.53
2017-09-11T11:21:34.256Z,20.77
2017-09-11T11:24:02.734Z,17.60
2017-09-11T11:26:31.287Z,15.20
2017-09-11T11:28:59.840Z,17.17
2017-09-11T11:31:28.362Z,17.63
2017-09-11T11:33:56.871Z,22.77
2017-09-11T11:36:25.351Z,18.90
2017-09-11T11:38:53.805Z,16.40
2017-09-11T11:41:22.306Z,18.27
2017-09-11T11:43:50.807Z,19.60
2017-09-11T11:46:19.328Z,20.50
2017-09-11T11:48:47.911Z,17.33
2017-09-11T11:51:16.387Z,26.60
2017-09-11T11:53:44.871Z,18.27
2017-09-11T11:56:13.377Z,18.97
2017-09-11T11:58:41.838Z,20.37
2017-09-11T12:01:11.061Z,17.33
2017-09-11T12:03:39.599Z,18.63
2017-09-11T12:06:08.071Z,16.30
2017-09-11T12:08:36.533Z,17.40
2017-09-11T12:11:05.023Z,21.00
2017-09-11T12:13:33.515Z,19.13
2017-09-11T12:16:01.972Z,16.47
2017-09-11T12:18:30.470Z,19.47
2017-09-11T12:20:58.974Z,16.50
2017-09-11T12:23:28.419Z,16.07
2017-09-11T12:25:57.090Z,17.83
2017-09-11T12:28:25.855Z,14.93
2017-09-11T12:30:54.282Z,16.50
2017-09-11T12:33:22.562Z,14.27
2017-09-11T12:35:50.820Z,16.10
2017-09-11T12:38:20.014Z,14.37
2017-09-11T12:40:49.222Z,20.40
2017-09-11T12:43:17.636Z,12.97
2017-09-11T12:45:46.055Z,13.63
2017-09-11T12:48:14.514Z,11.40
2017-09-11T12:50:42.924Z,10.03
2017-09-11T12:53:11.327Z,11.97
2017-09-11T12:55:39.781Z,13.20
2017-09-11T12:58:08.193Z,14.83
2017-09-11T13:00:36.616Z,15.20
2017-09-11T13:03:04.845Z,13.37
2017-09-11T13:05:33.848Z,12.20
2017-09-11T13:08:02.301Z,12.67
2017-09-11T13:10:30.722Z,12.10
2017-09-11T13:12:59.125Z,12.53
2017-09-11T13:15:27.545Z,15.43
2017-09-11T13:17:55.949Z,14.23
2017-09-11T13:20:24.356Z,15.87
2017-09-11T13:22:52.782Z,14.43
2017-09-11T13:25:21.183Z,16.10
2017-09-11T13:27:49.588Z,14.27
2017-09-11T13:30:18.185Z,14.37
2017-09-11T13:32:46.589Z,14.00
2017-09-11T13:35:14.986Z,13.63
2017-09-11T13:37:43.438Z,12.03
2017-09-11T13:40:11.851Z,13.73
2017-09-11T13:42:40.258Z,13.80
2017-09-11T13:45:08.706Z,12.07
2017-09-11T13:47:37.382Z,13.07
2017-09-11T13:50:05.798Z,15.70
2017-09-11T13:52:34.973Z,13.63
2017-09-11T13:55:03.397Z,13.50
2017-09-11T13:57:31.798Z,11.67
2017-09-11T14:00:00.206Z,12.73
2017-09-11T14:02:28.657Z,20.40
2017-09-11T14:04:56.874Z,14.50
2017-09-11T14:07:25.094Z,15.47
2017-09-11T14:09:53.349Z,14.30
2017-09-11T14:12:21.569Z,12.77
2017-09-11T14:14:49.999Z,14.43
2017-09-11T14:17:53.597Z,14.90
2017-09-11T14:20:22.013Z,14.47
2017-09-11T14:22:50.236Z,15.73
2017-09-11T14:25:18.492Z,13.40
2017-09-11T14:27:47.826Z,14.40
2017-09-11T14:30:16.245Z,16.83
2017-09-11T14:32:44.674Z,14.03
2017-09-11T14:35:13.096Z,15.00
2017-09-11T14:37:42.269Z,17.20
2017-09-11T14:40:10.707Z,13.27
2017-09-11T14:42:39.154Z,15.10
2017-09-11T14:45:07.897Z,13.07
2017-09-11T14:47:36.156Z,14.90
2017-09-11T14:50:11.601Z,12.37
2017-09-11T14:52:40.725Z,14.97
2017-09-11T14:55:08.880Z,9.17
2017-09-11T14:57:40.098Z,12.30
2017-09-11T15:00:10.148Z,10.53
2017-09-11T15:02:41.492Z,11.70
2017-09-11T15:05:10.509Z,10.80
2017-09-11T15:07:38.737Z,16.23
2017-09-11T15:10:06.733Z,12.20
2017-09-11T15:12:34.930Z,16.23
2017-09-11T15:15:04.079Z,13.90
2017-09-11T15:17:32.513Z,14.00
2017-09-11T15:20:00.980Z,12.77
2017-09-11T15:22:30.105Z,14.20
2017-09-11T15:24:58.539Z,11.97
2017-09-11T15:27:27.200Z,12.13
2017-09-11T15:29:56.693Z,11.67
2017-09-11T15:32:25.910Z,17.17
2017-09-11T15:34:54.351Z,13.53
2017-09-11T15:37:22.493Z,13.20
2017-09-11T15:39:51.569Z,15.43
2017-09-11T15:42:20.017Z,17.13
2017-09-11T15:44:49.209Z,17.73
2017-09-11T15:47:18.675Z,16.20
2017-09-11T15:49:47.102Z,14.80
2017-09-11T15:52:15.538Z,17.83
2017-09-11T15:54:43.981Z,16.13
2017-09-11T15:57:13.193Z,15.60
2017-09-11T15:59:41.429Z,16.90
2017-09-11T16:02:09.664Z,16.60
2017-09-11T16:04:38.091Z,17.73
2017-09-11T16:07:06.552Z,17.10
2017-09-11T16:09:35.073Z,16.07
2017-09-11T16:12:04.291Z,14.83
2017-09-11T16:14:34.823Z,16.30
2017-09-11T16:17:03.358Z,16.77
2017-09-11T16:19:31.788Z,16.30
2017-09-11T16:22:00.204Z,15.83
2017-09-11T16:24:28.631Z,16.83
2017-09-11T16:26:57.839Z,15.23
2017-09-11T16:29:26.057Z,16.90
2017-09-11T16:31:54.462Z,17.00
2017-09-11T16:34:22.967Z,14.50
2017-09-11T16:36:52.195Z,22.20
2017-09-11T16:39:20.627Z,20.30
2017-09-11T16:41:49.960Z,20.23
2017-09-11T16:44:39.207Z,22.70
2017-09-11T16:47:07.626Z,15.63
2017-09-11T16:49:36.073Z,15.20
2017-09-11T16:52:05.285Z,15.43
2017-09-11T16:54:34.299Z,19.77
2017-09-11T16:57:02.563Z,16.07
2017-09-11T16:59:31.569Z,20.10
2017-09-11T17:01:59.830Z,15.60
2017-09-11T17:04:29.034Z,17.23
2017-09-11T17:06:57.455Z,17.00
2017-09-11T17:09:25.889Z,21.97
2017-09-11T17:11:55.302Z,21.90
2017-09-11T17:14:23.999Z,24.13
2017-09-11T17:16:52.708Z,20.43
2017-09-11T17:19:21.383Z,18.07
2017-09-11T17:21:49.851Z,18.97
2017-09-11T17:24:18.558Z,17.73
2017-09-11T17:26:47.026Z,25.13
2017-09-11T17:29:15.474Z,20.17
2017-09-11T17:31:43.966Z,20.53
2017-09-11T17:34:13.182Z,19.23
2017-09-11T17:36:41.646Z,19.80
2017-09-11T17:39:10.899Z,25.53
2017-09-11T17:41:39.342Z,19.00
2017-09-11T17:44:07.794Z,20.33
2017-09-11T17:46:36.244Z,17.67
2017-09-11T17:49:04.654Z,21.10
2017-09-11T17:51:33.081Z,16.20
2017-09-11T17:54:01.498Z,16.80
2017-09-11T17:56:29.915Z,18.00
2017-09-11T17:58:59.190Z,19.27
2017-09-11T18:01:27.589Z,18.33
2017-09-11T18:03:56.830Z,20.63
2017-09-11T18:06:26.590Z,17.17
2017-09-11T18:08:54.863Z,20.33
2017-09-11T18:11:23.078Z,19.63
2017-09-11T18:13:51.517Z,18.50
2017-09-11T18:16:19.926Z,14.63
2017-09-11T18:18:49.098Z,15.00
2017-09-11T18:21:17.530Z,15.27
2017-09-11T18:23:46.017Z,15.37
2017-09-11T18:26:14.591Z,15.07
2017-09-11T18:28:43.021Z,14.03
2017-09-11T18:31:11.535Z,16.00
2017-09-11T18:33:40.709Z,17.50
2017-09-11T18:36:09.147Z,22.07
2017-09-11T18:38:37.566Z,13.90
2017-09-11T18:41:05.905Z,12.27
2017-09-11T18:43:34.185Z,18.27
2017-09-11T18:46:02.421Z,15.73
2017-09-11T18:48:31.600Z,21.07
2017-09-11T18:51:00.041Z,18.30
2017-09-11T18:53:28.492Z,15.73
2017-09-11T18:55:56.913Z,14.10
2017-09-11T18:58:25.380Z,15.47
2017-09-11T19:00:53.807Z,13.10
2017-09-11T19:03:22.218Z,12.50
2017-09-11T19:05:50.690Z,17.47
2017-09-11T19:08:19.870Z,13.87
2017-09-11T19:10:48.285Z,16.77
2017-09-11T19:13:16.741Z,19.33
2017-09-11T19:15:44.961Z,18.37
2017-09-11T19:18:13.369Z,18.90
2017-09-11T19:20:41.828Z,16.23
2017-09-11T19:23:10.262Z,16.07
2017-09-11T19:25:39.697Z,15.37
2017-09-11T19:28:08.366Z,12.13
2017-09-11T19:30:36.765Z,11.27
2017-09-11T19:33:05.178Z,17.13
2017-09-11T19:35:33.619Z,9.60
2017-09-11T19:38:02.023Z,9.30
2017-09-11T19:40:30.431Z,6.17
2017-09-11T19:42:58.669Z,6.00
2017-09-11T19:45:27.071Z,6.00
2017-09-11T19:47:55.474Z,4.60
2017-09-11T19:50:23.750Z,4.17
2017-09-11T19:52:51.975Z,4.03
2017-09-11T19:55:20.380Z,5.60
2017-09-11T19:57:48.794Z,5.27
2017-09-11T20:00:17.201Z,2.53
2017-09-11T20:02:45.638Z,2.67
2017-09-11T20:05:14.078Z,1.83
2017-09-11T20:07:42.508Z,5.53
2017-09-11T20:10:10.790Z,4.13
2017-09-11T20:12:39.311Z,2.80
2017-09-11T20:15:07.731Z,9.63
2017-09-11T20:17:36.003Z,2.13
2017-09-11T20:20:04.422Z,1.53
2017-09-11T20:22:32.821Z,1.80
2017-09-11T20:25:01.345Z,1.13
2017-09-11T20:27:29.753Z,1.40
2017-09-11T20:29:58.189Z,2.20
2017-09-11T20:32:26.801Z,1.10
2017-09-11T20:34:55.254Z,1.27
2017-09-11T20:37:23.707Z,1.17
2017-09-11T20:39:52.925Z,2.40
2017-09-11T20:42:21.573Z,0.93
2017-09-11T20:44:49.981Z,1.20
2017-09-11T20:47:19.191Z,1.30
2017-09-11T20:49:48.174Z,0.90
2017-09-11T20:52:17.369Z,2.33
2017-09-11T20:54:46.588Z,6.50
2017-09-11T20:57:14.998Z,0.90
2017-09-11T20:59:43.423Z,2.50
2017-09-11T21:02:11.922Z,1.17
2017-09-11T21:04:41.131Z,0.90
2017-09-11T21:07:09.547Z,0.80
2017-09-11T21:09:37.850Z,1.03
2017-09-11T21:12:06.412Z,1.43
2017-09-11T21:14:34.669Z,1.40
2017-09-11T21:17:03.861Z,1.00
2017-09-11T21:19:32.117Z,1.20
2017-09-11T21:22:01.117Z,1.27
2017-09-11T21:24:29.525Z,1.53
2017-09-11T21:28:04.741Z,8.73
2017-09-11T21:30:33.909Z,1.57
2017-09-11T21:33:02.361Z,1.87
2017-09-11T21:35:30.814Z,4.20
2017-09-11T21:37:59.227Z,1.00
2017-09-11T21:40:27.629Z,1.37
2017-09-11T21:42:56.046Z,4.20
2017-09-11T21:45:24.335Z,0.90
2017-09-11T21:47:53.650Z,4.60
2017-09-11T21:50:22.082Z,1.10
2017-09-11T21:52:51.299Z,1.10
2017-09-11T21:55:19.774Z,1.30
2017-09-11T21:57:48.982Z,0.90
2017-09-11T22:00:18.150Z,1.00
2017-09-11T22:02:46.641Z,1.47
2017-09-11T22:05:15.114Z,1.20
2017-09-11T22:07:43.686Z,1.80
2017-09-11T22:10:12.244Z,1.33
2017-09-11T22:12:40.668Z,1.63
2017-09-11T22:15:09.657Z,4.60
2017-09-11T22:17:38.087Z,1.30
2017-09-11T22:20:08.367Z,2.90
2017-09-11T22:22:36.969Z,2.60
2017-09-11T22:25:05.458Z,2.07
2017-09-11T22:27:35.567Z,0.80
2017-09-11T22:30:04.530Z,1.37
2017-09-11T22:32:33.557Z,0.90
2017-09-11T22:35:01.998Z,1.10
2017-09-11T22:37:30.616Z,1.73
2017-09-11T22:39:59.101Z,1.70
2017-09-11T22:42:27.596Z,1.27
2017-09-11T22:44:56.748Z,1.37
2017-09-11T22:47:25.207Z,1.77
2017-09-11T22:49:54.189Z,1.20
2017-09-11T22:52:22.587Z,1.23
2017-09-11T22:54:51.012Z,1.00
2017-09-11T22:57:19.429Z,2.80
2017-09-11T22:59:47.839Z,1.10
2017-09-11T23:02:16.252Z,2.80
2017-09-11T23:04:44.673Z,3.53
2017-09-11T23:07:13.080Z,2.03
2017-09-11T23:09:41.530Z,1.20
2017-09-11T23:12:09.975Z,1.97
2017-09-11T23:14:38.377Z,1.80
2017-09-11T23:17:07.553Z,3.90
2017-09-11T23:19:36.038Z,1.10
2017-09-11T23:22:04.098Z,3.23
2017-09-11T23:24:32.513Z,5.90
2017-09-11T23:27:01.730Z,1.10
2017-09-11T23:29:30.138Z,0.80
2017-09-11T23:31:58.538Z,3.13
2017-09-11T23:34:26.990Z,1.13
2017-09-11T23:36:55.399Z,1.27
2017-09-11T23:39:23.805Z,1.87
2017-09-11T23:41:52.272Z,1.47
2017-09-11T23:44:20.688Z,2.17
2017-09-11T23:46:49.094Z,3.47
2017-09-11T23:49:17.533Z,1.40
2017-09-11T23:51:46.720Z,0.93
2017-09-11T23:54:15.121Z,1.17
2017-09-11T23:56:44.319Z,1.43
2017-09-11T23:59:12.788Z,1.83
